Time;durP1;ratioP1;P1;durP2;ratioP2;P2;SDS_P1;SDS_P2;PMS_P1;PMS_P2;Temp;Humidity;BMP_temperature;BMP_pressure;BME280_temperature;BME280_humidity;BME280_pressure;Samples;Min_cycle;Max_cycle;Signal;HPM_P1;HPM_P2
2023/10/01 00:01:12;;;;;;;;;;;;;;;14.74;85.21;102332.31;5091431;28;1607;-76
2023/10/01 00:03:38;;;;;;;;;;;;;;;14.69;85.15;102329.22;5085519;28;1262;-75
2023/10/01 00:06:04;;;;;;;;;;;;;;;14.66;85.16;102329.44;5086532;28;1264;-76
2023/10/01 00:08:29;;;;;;;;;;;;;;;14.65;85.29;102327.78;5081103;28;1195;-76
2023/10/01 00:10:55;;;;;;;;;;;;;;;14.64;85.33;102331.34;5077775;28;1463;-76
2023/10/01 00:13:21;;;;;;;;;;;;;;;14.63;85.49;102339.28;5086536;28;1886;-75
2023/10/01 00:15:49;;;;;;;;;;;;;;;14.63;85.25;102328.84;5078781;28;1709;-77
2023/10/01 00:18:14;;;;;;;;;;;;;;;14.59;85.19;102329.06;5104095;27;1174;-76
2023/10/01 00:20:39;;;;;;;;;;;;;;;14.59;85.32;102328.22;5097420;28;1140;-76
2023/10/01 00:23:05;;;;;;;;;;;;;;;14.56;85.16;102318.84;5079995;28;1747;-75
2023/10/01 00:25:32;;;;;;;;;;;;;;;14.56;85.14;102316.22;5085167;28;1344;-76
2023/10/01 00:28:00;;;;;;;;;;;;;;;14.56;85.25;102323.22;5089352;28;1174;-77
2023/10/01 00:30:25;;;;;;;;;;;;;;;14.51;85.19;102325.38;5091818;28;1306;-77
2023/10/01 00:32:51;;;;;;;;;;;;;;;14.44;85.23;102318.88;5087083;28;1963;-77
2023/10/01 00:35:16;;;;;;;;;;;;;;;14.42;85.21;102326.00;5081933;28;1272;-77
2023/10/01 00:37:42;;;;;;;;;;;;;;;14.42;85.25;102336.47;5093452;28;1270;-77
2023/10/01 00:40:08;;;;;;;;;;;;;;;14.40;85.19;102338.34;5091900;28;1122;-77
2023/10/01 00:42:34;;;;;;;;;;;;;;;14.37;85.08;102333.34;5086838;28;1065;-78
2023/10/01 00:45:00;;;;;;;;;;;;;;;14.33;85.25;102323.13;5089081;28;1474;-77
2023/10/01 00:47:27;;;;;;;;;;;;;;;14.28;85.05;102316.59;5086904;28;1092;-77
2023/10/01 00:49:52;;;;;;;;;;;;;;;14.24;84.96;102317.75;5084763;28;1114;-78
2023/10/01 00:52:19;;;;;;;;;;;;;;;14.18;85.27;102318.22;5093720;28;1945;-77
2023/10/01 00:54:44;;;;;;;;;;;;;;;14.15;85.07;102316.66;5085490;28;1150;-78
2023/10/01 00:57:10;;;;;;;;;;;;;;;14.11;84.99;102320.44;5088747;28;1323;-77
2023/10/01 00:59:35;;;;;;;;;;;;;;;14.09;85.17;102315.31;5084681;28;1318;-78
2023/10/01 01:02:06;;;;;;;;;;;;;;;14.08;84.94;102318.03;5085410;28;1132;-78
2023/10/01 01:04:36;;;;;;;;;;;;;;;14.00;84.88;102304.75;5085487;28;1047;-77
2023/10/01 01:07:05;;;;;;;;;;;;;;;13.94;85.05;102300.78;5094379;28;1411;-78
2023/10/01 01:09:30;;;;;;;;;;;;;;;13.88;85.48;102295.16;5085191;28;1045;-78
2023/10/01 01:11:55;;;;;;;;;;;;;;;13.89;85.33;102297.69;5080534;28;1898;-77
2023/10/01 01:14:21;;;;;;;;;;;;;;;13.89;85.66;102299.47;5080020;28;1183;-77
2023/10/01 01:16:48;;;;;;;;;;;;;;;13.87;85.50;102298.72;5081473;28;1123;-78
2023/10/01 01:19:15;;;;;;;;;;;;;;;13.88;85.61;102296.03;5080133;28;1434;-78
2023/10/01 01:21:42;;;;;;;;;;;;;;;13.89;85.56;102297.69;5080520;28;1361;-77
2023/10/01 01:24:08;;;;;;;;;;;;;;;13.90;85.54;102288.06;5088150;28;1134;-78
2023/10/01 01:26:33;;;;;;;;;;;;;;;13.91;85.37;102289.75;5081845;27;1299;-77
2023/10/01 01:29:16;;;;;;;;;;;;;;;13.91;85.49;102289.75;5079318;28;1264;-77
2023/10/01 01:31:45;;;;;;;;;;;;;;;13.90;85.27;102288.06;5084135;28;1960;-78
2023/10/01 01:34:12;;;;;;;;;;;;;;;13.89;85.30;102289.03;5083658;28;945;-77
2023/10/01 01:36:38;;;;;;;;;;;;;;;13.89;85.07;102281.19;5092125;28;1027;-78
2023/10/01 01:39:12;;;;;;;;;;;;;;;13.90;85.18;102282.88;5089626;28;1264;-78
2023/10/01 01:41:42;;;;;;;;;;;;;;;13.89;85.27;102283.81;5078556;28;1226;-78
2023/10/01 01:44:13;;;;;;;;;;;;;;;13.89;85.23;102276.00;5082894;28;1466;-78
2023/10/01 01:46:47;;;;;;;;;;;;;;;13.90;85.15;102272.44;5089093;28;1079;-77
2023/10/01 01:49:14;;;;;;;;;;;;;;;13.91;85.22;102268.88;5091011;28;1134;-78
2023/10/01 01:51:40;;;;;;;;;;;;;;;13.92;85.15;102270.53;5088170;28;1902;-78
2023/10/01 01:54:06;;;;;;;;;;;;;;;13.93;84.93;102266.97;5092935;28;1462;-78
2023/10/01 01:56:39;;;;;;;;;;;;;;;13.94;85.01;102268.66;5079661;28;1152;-78
2023/10/01 01:59:13;;;;;;;;;;;;;;;13.95;84.86;102265.09;5105886;27;1084;-78
2023/10/01 02:01:38;;;;;;;;;;;;;;;13.95;85.17;102254.66;5090078;28;1206;-77
2023/10/01 02:04:04;;;;;;;;;;;;;;;13.94;85.40;102247.78;5094695;28;1421;-78
2023/10/01 02:06:31;;;;;;;;;;;;;;;13.94;85.09;102253.00;5085981;28;1032;-78
2023/10/01 02:08:59;;;;;;;;;;;;;;;13.93;85.05;102246.94;5099523;27;1210;-77
2023/10/01 02:11:25;;;;;;;;;;;;;;;13.95;85.17;102249.47;5083663;28;1885;-78
2023/10/01 02:13:51;;;;;;;;;;;;;;;13.95;85.14;102252.06;5079308;28;1345;-78
2023/10/01 02:16:35;;;;;;;;;;;;;;;13.95;85.13;102267.72;5089561;28;1107;-77
2023/10/01 02:19:21;;;;;;;;;;;;;;;13.96;85.21;102256.34;5074647;28;1206;-77
2023/10/01 02:21:49;;;;;;;;;;;;;;;13.91;85.02;102264.47;5079499;28;1251;-78
2023/10/01 02:24:23;;;;;;;;;;;;;;;13.90;85.25;102269.81;5080833;28;1066;-78
2023/10/01 02:26:53;;;;;;;;;;;;;;;13.92;85.25;102265.31;5073594;28;1230;-78
2023/10/01 02:29:24;;;;;;;;;;;;;;;13.91;85.15;102255.84;5088676;28;1292;-77
2023/10/01 02:31:56;;;;;;;;;;;;;;;13.91;85.30;102248.84;5080333;28;1922;-78
2023/10/01 02:34:29;;;;;;;;;;;;;;;13.92;85.03;102244.44;5082678;28;1257;-79
2023/10/01 02:36:55;;;;;;;;;;;;;;;13.90;85.07;102251.56;5079052;28;1151;-78
2023/10/01 02:39:27;;;;;;;;;;;;;;;13.85;84.78;102257.09;5087078;28;1079;-77
2023/10/01 02:44:34;;;;;;;;;;;;;;;13.79;85.12;102260.16;5097943;28;1080;-78
2023/10/01 02:47:18;;;;;;;;;;;;;;;13.77;84.93;102257.66;5076164;28;1248;-78
2023/10/01 02:49:53;;;;;;;;;;;;;;;13.75;84.88;102259.53;5090673;28;1214;-78
2023/10/01 02:52:22;;;;;;;;;;;;;;;13.73;85.02;102260.59;5094215;28;1952;-78
2023/10/01 02:54:53;;;;;;;;;;;;;;;13.71;84.79;102263.34;5087131;28;1194;-77
2023/10/01 02:57:25;;;;;;;;;;;;;;;13.67;84.99;102261.88;5089795;28;1182;-78
2023/10/01 03:02:38;;;;;;;;;;;;;;;13.65;84.90;102250.75;5088176;28;1300;-77
2023/10/01 03:05:05;;;;;;;;;;;;;;;13.60;85.11;102249.41;5080911;28;1239;-78
2023/10/01 03:07:40;;;;;;;;;;;;;;;13.56;85.05;102248.78;5086428;28;1061;-77
2023/10/01 03:10:29;;;;;;;;;;;;;;;13.57;85.43;102239.19;5089738;28;1063;-78
2023/10/01 03:12:57;;;;;;;;;;;;;;;13.56;85.44;102233.13;5082263;28;1955;-78
2023/10/01 03:15:24;;;;;;;;;;;;;;;13.53;85.31;102222.91;5085351;28;1525;-79
2023/10/01 03:18:30;;;;;;;;;;;;;;;13.50;85.11;102228.38;5082672;28;1263;-78
2023/10/01 03:26:03;;;;;;;;;;;;;;;13.46;85.58;102232.13;5076115;28;1245;-78
2023/10/01 03:28:32;;;;;;;;;;;;;;;13.45;85.70;102236.50;5079280;28;1087;-78
2023/10/01 03:31:08;;;;;;;;;;;;;;;13.45;85.68;102230.47;5079254;28;1101;-77
2023/10/01 03:33:33;;;;;;;;;;;;;;;13.43;85.64;102237.56;5081806;28;1893;-77
2023/10/01 03:35:58;;;;;;;;;;;;;;;13.42;85.77;102225.47;5085745;28;1083;-78
2023/10/01 03:38:24;;;;;;;;;;;;;;;13.40;85.56;102229.97;5085506;28;1339;-78
2023/10/01 03:41:01;;;;;;;;;;;;;;;13.39;85.78;102225.69;5085433;28;1457;-77
2023/10/01 03:43:35;;;;;;;;;;;;;;;13.38;86.02;102221.44;5099452;28;1209;-77
2023/10/01 03:51:28;;;;;;;;;;;;;;;13.37;86.02;102231.03;5078288;28;1918;-77
2023/10/01 03:53:58;;;;;;;;;;;;;;;13.34;86.06;102222.56;5100628;28;1320;-78
2023/10/01 03:56:24;;;;;;;;;;;;;;;13.32;86.23;102224.47;5085587;28;1147;-77
2023/10/01 03:58:49;;;;;;;;;;;;;;;13.28;86.24;102219.47;5088845;28;1104;-77
2023/10/01 04:01:33;;;;;;;;;;;;;;;13.28;86.44;102227.28;5090688;28;1318;-77
2023/10/01 04:04:00;;;;;;;;;;;;;;;13.31;86.57;102228.03;5091809;28;1298;-77
2023/10/01 04:06:27;;;;;;;;;;;;;;;13.28;86.60;102224.66;5079981;28;1242;-78
2023/10/01 04:08:55;;;;;;;;;;;;;;;13.28;86.90;102222.06;5086879;28;1698;-77
2023/10/01 04:11:49;;;;;;;;;;;;;;;13.32;86.86;102219.25;5086690;28;1630;-78
2023/10/01 04:14:17;;;;;;;;;;;;;;;13.34;86.63;102222.56;5084984;28;1059;-78
2023/10/01 04:16:46;;;;;;;;;;;;;;;13.31;86.83;102223.63;5078499;28;1030;-78
2023/10/01 04:19:12;;;;;;;;;;;;;;;13.31;86.62;102217.59;5081690;28;1124;-78
2023/10/01 04:21:37;;;;;;;;;;;;;;;13.29;87.08;102215.06;5084811;28;1252;-77
2023/10/01 04:24:02;;;;;;;;;;;;;;;13.31;86.92;102215.00;5084048;28;1083;-78
2023/10/01 04:26:30;;;;;;;;;;;;;;;13.30;86.73;102221.94;5086804;28;1209;-77
2023/10/01 04:28:59;;;;;;;;;;;;;;;13.29;86.96;102228.94;5095363;27;1413;-77
2023/10/01 04:31:42;;;;;;;;;;;;;;;13.31;86.98;102228.03;5084649;28;1897;-77
2023/10/01 04:34:11;;;;;;;;;;;;;;;13.31;87.32;102222.81;5085477;28;1115;-78
2023/10/01 04:36:40;;;;;;;;;;;;;;;13.31;86.88;102233.22;5081505;28;1094;-78
2023/10/01 04:39:05;;;;;;;;;;;;;;;13.29;87.01;102226.31;5079527;28;1052;-78
2023/10/01 04:41:31;;;;;;;;;;;;;;;13.31;87.20;102228.03;5082765;28;1026;-77
2023/10/01 04:44:03;;;;;;;;;;;;;;;13.33;87.23;102231.34;5089718;28;1036;-78
2023/10/01 04:46:29;;;;;;;;;;;;;;;13.33;87.38;102232.16;5081299;28;1016;-77
2023/10/01 04:48:55;;;;;;;;;;;;;;;13.36;87.42;102231.97;5089388;28;1402;-79
2023/10/01 04:51:22;;;;;;;;;;;;;;;13.36;87.55;102224.16;5081949;28;1079;-77
2023/10/01 04:53:48;;;;;;;;;;;;;;;13.37;87.45;102222.38;5110154;27;1890;-78
2023/10/01 04:56:20;;;;;;;;;;;;;;;13.37;87.66;102220.59;5084937;28;1074;-78
2023/10/01 04:58:46;;;;;;;;;;;;;;;13.37;87.51;102222.38;5088401;28;1032;-78
2023/10/01 05:01:12;;;;;;;;;;;;;;;13.38;87.77;102214.44;5086792;28;1063;-78
2023/10/01 05:03:40;;;;;;;;;;;;;;;13.41;87.69;102213.38;5087540;28;1155;-77
2023/10/01 05:06:18;;;;;;;;;;;;;;;13.41;87.85;102213.38;5094274;28;1246;-78
2023/10/01 05:08:43;;;;;;;;;;;;;;;13.42;87.87;102220.25;5088684;28;1278;-78
2023/10/01 05:11:11;;;;;;;;;;;;;;;13.40;87.80;102216.94;5095668;28;1043;-77
2023/10/01 05:13:39;;;;;;;;;;;;;;;13.43;87.90;102222.75;5113617;27;1905;-78
2023/10/01 05:16:06;;;;;;;;;;;;;;;13.44;87.92;102228.81;5097763;28;1127;-78
2023/10/01 05:18:33;;;;;;;;;;;;;;;13.45;87.95;102226.09;5089752;28;1001;-77
2023/10/01 05:20:58;;;;;;;;;;;;;;;13.46;87.88;102221.69;5088478;28;1337;-78
2023/10/01 05:23:26;;;;;;;;;;;;;;;13.47;88.40;102228.56;5086971;28;1266;-78
2023/10/01 05:25:51;;;;;;;;;;;;;;;13.47;88.04;102218.16;5079794;28;1293;-78
2023/10/01 05:28:32;;;;;;;;;;;;;;;13.48;87.86;102230.25;5083759;28;1261;-78
2023/10/01 05:30:58;;;;;;;;;;;;;;;13.48;87.94;102231.09;5086161;28;1051;-77
2023/10/01 05:33:24;;;;;;;;;;;;;;;13.48;88.03;102225.03;5085926;28;1986;-78
2023/10/01 05:35:54;;;;;;;;;;;;;;;13.47;88.37;102228.56;5089089;28;956;-78
2023/10/01 05:38:20;;;;;;;;;;;;;;;13.45;88.32;102231.28;5088111;28;980;-77
2023/10/01 05:40:46;;;;;;;;;;;;;;;13.47;88.50;102233.78;5106949;27;1062;-78
2023/10/01 05:43:18;;;;;;;;;;;;;;;13.48;88.44;102219.84;5087660;28;1065;-78
2023/10/01 05:45:53;;;;;;;;;;;;;;;13.47;88.44;102234.63;5085004;28;1346;-77
2023/10/01 05:48:19;;;;;;;;;;;;;;;13.45;88.39;102230.47;5080820;28;1089;-78
2023/10/01 05:50:46;;;;;;;;;;;;;;;13.47;88.64;102239.00;5084385;28;1138;-78
2023/10/01 05:53:13;;;;;;;;;;;;;;;13.46;88.33;102234.72;5081361;28;1910;-78
2023/10/01 05:55:39;;;;;;;;;;;;;;;13.45;88.47;102235.69;5083433;28;1062;-77
2023/10/01 05:58:13;;;;;;;;;;;;;;;13.45;88.15;102230.47;5081233;28;1026;-79
2023/10/01 06:00:56;;;;;;;;;;;;;;;13.44;88.49;102239.22;5076188;28;1302;-78
2023/10/01 06:03:23;;;;;;;;;;;;;;;13.43;88.72;102248.00;5072498;28;1021;-78
2023/10/01 06:05:57;;;;;;;;;;;;;;;13.42;88.70;102246.31;5089095;28;910;-78
2023/10/01 06:08:26;;;;;;;;;;;;;;;13.40;88.51;102246.41;5076735;28;1243;-77
2023/10/01 06:11:13;;;;;;;;;;;;;;;13.40;88.15;102243.00;5084867;28;1178;-77
2023/10/01 06:13:39;;;;;;;;;;;;;;;13.39;88.70;102241.31;5082601;28;2015;-77
2023/10/01 06:16:15;;;;;;;;;;;;;;;13.41;88.36;102255.06;5082660;28;1359;-77
2023/10/01 06:18:50;;;;;;;;;;;;;;;13.39;88.25;102249.16;5086213;28;1122;-78
2023/10/01 06:21:17;;;;;;;;;;;;;;;13.36;88.50;102245.00;5084310;28;1359;-79
2023/10/01 06:23:52;;;;;;;;;;;;;;;13.36;88.56;102257.16;5081686;28;1181;-76
2023/10/01 06:26:22;;;;;;;;;;;;;;;13.37;88.12;102254.47;5084224;28;1165;-74
2023/10/01 06:28:47;;;;;;;;;;;;;;;13.36;88.51;102238.91;5080840;28;1142;-75
2023/10/01 06:31:16;;;;;;;;;;;;;;;13.36;88.55;102246.75;5086220;28;1151;-75
2023/10/01 06:33:41;;;;;;;;;;;;;;;13.37;88.50;102253.66;5078437;28;1894;-74
2023/10/01 06:36:15;;;;;;;;;;;;;;;13.32;88.43;102260.94;5085468;28;1175;-74
2023/10/01 06:38:41;;;;;;;;;;;;;;;13.28;88.50;102263.75;5083248;28;1351;-75
2023/10/01 06:41:13;;;;;;;;;;;;;;;13.29;88.57;102252.38;5089207;28;1431;-74
2023/10/01 06:43:48;;;;;;;;;;;;;;;13.27;88.85;102254.28;5084471;28;1157;-74
2023/10/01 06:46:13;;;;;;;;;;;;;;;13.25;88.46;102250.97;5090824;28;1340;-76
2023/10/01 06:48:40;;;;;;;;;;;;;;;13.26;88.64;102247.41;5084800;28;1167;-75
2023/10/01 06:51:05;;;;;;;;;;;;;;;13.26;88.54;102242.19;5083254;28;1186;-75
2023/10/01 06:53:45;;;;;;;;;;;;;;;13.27;88.88;102238.66;5094233;27;1929;-75
2023/10/01 06:56:10;;;;;;;;;;;;;;;13.28;88.90;102237.69;5085499;28;1288;-75
2023/10/01 06:58:35;;;;;;;;;;;;;;;13.31;88.70;102238.44;5080799;28;1005;-75
2023/10/01 07:01:02;;;;;;;;;;;;;;;13.33;88.78;102242.59;5083632;28;1096;-75
2023/10/01 07:03:30;;;;;;;;;;;;;;;13.35;89.20;102250.28;5077242;28;1203;-77
2023/10/01 07:05:57;;;;;;;;;;;;;;;13.38;89.08;102244.88;5080439;28;1371;-75
2023/10/01 07:08:37;;;;;;;;;;;;;;;13.40;89.20;102243.00;5078058;28;1084;-74
2023/10/01 07:11:11;;;;;;;;;;;;;;;13.45;89.48;102246.94;5082378;28;1103;-74
2023/10/01 07:13:37;;;;;;;;;;;;;;;13.50;89.48;102247.44;5083843;28;1955;-76
2023/10/01 07:16:03;;;;;;;;;;;;;;;13.56;89.34;102254.00;5077654;28;1170;-75
2023/10/01 07:18:29;;;;;;;;;;;;;;;13.60;89.34;102255.44;5080496;28;1150;-75
2023/10/01 07:21:00;;;;;;;;;;;;;;;13.67;89.34;102250.63;5075784;28;1262;-75
2023/10/01 07:23:25;;;;;;;;;;;;;;;13.72;89.12;102257.16;5084562;28;1233;-75
2023/10/01 07:26:00;;;;;;;;;;;;;;;13.79;89.19;102254.94;5077819;28;1170;-75
2023/10/01 07:28:25;;;;;;;;;;;;;;;13.86;89.48;102252.72;5083540;28;1178;-76
2023/10/01 07:30:56;;;;;;;;;;;;;;;13.94;88.61;102247.78;5085644;28;1187;-75
2023/10/01 07:33:22;;;;;;;;;;;;;;;13.98;89.20;102249.22;5080783;28;1953;-75
2023/10/01 07:35:58;;;;;;;;;;;;;;;14.04;89.03;102259.19;5085868;28;1144;-75
2023/10/01 07:38:25;;;;;;;;;;;;;;;14.12;89.36;102262.09;5084281;28;1010;-75
2023/10/01 07:40:57;;;;;;;;;;;;;;;14.20;88.96;102257.13;5090014;28;1141;-76
2023/10/01 07:43:22;;;;;;;;;;;;;;;14.26;89.11;102248.84;5085725;28;1049;-75
2023/10/01 07:45:55;;;;;;;;;;;;;;;14.36;89.30;102254.22;5082443;28;1114;-76
2023/10/01 07:48:28;;;;;;;;;;;;;;;14.44;89.41;102251.03;5082886;28;1261;-78
2023/10/01 07:50:53;;;;;;;;;;;;;;;14.44;89.00;102241.41;5084479;28;1337;-79
2023/10/01 07:53:19;;;;;;;;;;;;;;;14.60;89.06;102248.94;5079782;28;1967;-77
2023/10/01 07:55:47;;;;;;;;;;;;;;;14.72;88.30;102255.84;5085422;28;1150;-78
2023/10/01 07:58:44;;;;;;;;;;;;;;;14.80;88.63;102263.13;5085987;28;1028;-78
2023/10/01 08:03:56;;;;;;;;;;;;;;;14.99;87.41;102272.97;5088901;28;1184;-78
2023/10/01 08:06:30;;;;;;;;;;;;;;;15.05;88.21;102288.19;5085470;28;1421;-78
2023/10/01 08:08:59;;;;;;;;;;;;;;;15.12;87.97;102284.13;5087502;28;1463;-79
2023/10/01 08:14:09;;;;;;;;;;;;;;;15.27;88.21;102282.94;5081344;28;958;-75
2023/10/01 08:16:47;;;;;;;;;;;;;;;15.37;88.09;102289.13;5078337;28;1273;-76
2023/10/01 08:19:20;;;;;;;;;;;;;;;15.48;88.13;102287.41;5094231;27;1345;-75
2023/10/01 08:21:50;;;;;;;;;;;;;;;15.56;87.26;102282.44;5083831;28;1233;-76
2023/10/01 08:24:18;;;;;;;;;;;;;;;15.65;87.89;102284.31;5086433;28;980;-75
2023/10/01 08:27:12;;;;;;;;;;;;;;;15.73;87.52;102284.56;5092220;28;1020;-75
2023/10/01 08:32:22;;;;;;;;;;;;;;;15.96;86.50;102289.72;5081002;28;1906;-76
2023/10/01 08:35:05;;;;;;;;;;;;;;;16.03;87.20;102283.03;5085594;28;1203;-75
2023/10/01 08:37:37;;;;;;;;;;;;;;;16.11;86.62;102280.59;5087082;28;1130;-75
2023/10/01 08:40:03;;;;;;;;;;;;;;;16.20;86.59;102275.47;5082114;28;1181;-76
2023/10/01 08:42:31;;;;;;;;;;;;;;;16.28;86.09;102269.56;5083596;28;1075;-76
2023/10/01 08:45:06;;;;;;;;;;;;;;;16.39;86.54;102260.84;5083735;28;1207;-76
2023/10/01 08:47:34;;;;;;;;;;;;;;;16.49;86.11;102266.16;5084263;28;1134;-76
2023/10/01 08:50:45;;;;;;;;;;;;;;;16.58;85.61;102260.97;5089257;28;1196;-76
2023/10/01 08:52:52;;;;;;;;;;;;;;;16.69;85.59;102262.69;5079547;28;1953;-76
2023/10/01 08:58:25;;;;;;;;;;;;;;;16.85;85.39;102268.28;5081613;28;1422;-74
2023/10/01 09:01:12;;;;;;;;;;;;;;;16.96;84.83;102270.00;5084299;28;1139;-73
2023/10/01 09:03:36;;;;;;;;;;;;;;;17.08;84.71;102262.88;5087342;28;1297;-75
2023/10/01 09:06:24;;;;;;;;;;;;;;;17.20;85.05;102267.03;5086325;28;1158;-73
2023/10/01 09:08:54;;;;;;;;;;;;;;;17.32;84.20;102259.91;5085059;28;1026;-75
2023/10/01 09:11:19;;;;;;;;;;;;;;;17.39;83.92;102261.06;5085687;28;1131;-73
2023/10/01 09:13:58;;;;;;;;;;;;;;;17.47;84.03;102256.78;5081044;28;1897;-74
2023/10/01 09:16:32;;;;;;;;;;;;;;;17.61;83.69;102265.25;5077217;28;1371;-75
2023/10/01 09:19:05;;;;;;;;;;;;;;;17.65;83.50;102262.19;5081782;28;1362;-74
2023/10/01 09:21:39;;;;;;;;;;;;;;;17.68;83.32;102258.47;5083557;28;1209;-73
2023/10/01 09:24:55;;;;;;;;;;;;;;;17.75;82.67;102262.22;5078883;28;1162;-74
2023/10/01 09:26:56;;;;;;;;;;;;;;;17.77;82.82;102244.53;5074380;28;1493;-74
2023/10/01 09:29:21;;;;;;;;;;;;;;;17.78;82.80;102256.72;5085689;28;1162;-74
2023/10/01 09:31:56;;;;;;;;;;;;;;;17.77;82.59;102255.03;5084146;28;1984;-74
2023/10/01 09:34:31;;;;;;;;;;;;;;;17.83;82.56;102253.66;5089586;28;1182;-74
2023/10/01 09:37:02;;;;;;;;;;;;;;;17.89;82.71;102253.97;5093028;28;1066;-76
2023/10/01 09:39:43;;;;;;;;;;;;;;;18.01;82.47;102263.34;5088808;28;1154;-74
2023/10/01 09:42:28;;;;;;;;;;;;;;;18.15;82.52;102253.38;5090973;28;1119;-76
2023/10/01 09:44:54;;;;;;;;;;;;;;;18.29;82.25;102260.81;5086828;28;1041;-74
2023/10/01 09:47:24;;;;;;;;;;;;;;;18.40;82.19;102268.53;5084708;28;1105;-73
2023/10/01 09:49:53;;;;;;;;;;;;;;;18.53;81.91;102257.75;5078361;28;1143;-75
2023/10/01 09:52:31;;;;;;;;;;;;;;;18.61;81.42;102259.66;5082960;28;1902;-73
2023/10/01 09:55:00;;;;;;;;;;;;;;;18.70;81.45;102256.22;5090284;28;1165;-74
2023/10/01 09:57:26;;;;;;;;;;;;;;;18.78;80.98;102262.41;5084285;28;1405;-74
2023/10/01 10:00:14;;;;;;;;;;;;;;;18.86;80.78;102264.31;5084719;28;1214;-75
2023/10/01 10:02:40;;;;;;;;;;;;;;;18.97;80.72;102272.00;5090304;28;1263;-75
2023/10/01 10:05:06;;;;;;;;;;;;;;;19.08;80.72;102258.66;5086215;28;1001;-74
2023/10/01 10:07:32;;;;;;;;;;;;;;;19.23;80.11;102255.56;5090817;28;1223;-74
2023/10/01 10:09:58;;;;;;;;;;;;;;;19.36;79.63;102256.03;5090992;28;1063;-74
2023/10/01 10:12:33;;;;;;;;;;;;;;;19.39;79.45;102255.75;5084062;28;1894;-73
2023/10/01 10:14:59;;;;;;;;;;;;;;;19.45;79.26;102249.06;5091250;28;989;-75
2023/10/01 10:17:25;;;;;;;;;;;;;;;19.53;79.29;102260.50;5094436;28;1056;-75
2023/10/01 10:20:15;;;;;;;;;;;;;;;19.62;78.55;102259.63;5088229;28;1315;-74
2023/10/01 10:22:59;;;;;;;;;;;;;;;19.73;78.68;102257.78;5091089;28;1042;-75
2023/10/01 10:25:25;;;;;;;;;;;;;;;19.86;78.48;102252.94;5082981;28;1075;-76
2023/10/01 10:27:51;;;;;;;;;;;;;;;19.94;78.15;102258.28;5075320;28;1085;-76
2023/10/01 10:30:16;;;;;;;;;;;;;;;20.02;77.85;102258.34;5083092;28;1111;-75
2023/10/01 10:33:02;;;;;;;;;;;;;;;20.08;77.84;102252.47;5084207;28;1889;-74
2023/10/01 10:35:27;;;;;;;;;;;;;;;20.17;77.02;102248.91;5077779;28;1349;-74
2023/10/01 10:37:55;;;;;;;;;;;;;;;20.18;77.08;102241.81;5088852;28;1048;-74
2023/10/01 10:42:46;;;;;;;;;;;;;;;20.37;76.99;102251.38;5077583;28;1200;-75
2023/10/01 10:45:19;;;;;;;;;;;;;;;20.49;76.54;102250.16;5080605;28;1058;-73
2023/10/01 10:48:01;;;;;;;;;;;;;;;20.55;75.07;102239.00;5079025;28;1542;-73
2023/10/01 10:50:44;;;;;;;;;;;;;;;20.60;75.60;102241.97;5090277;28;1065;-74
2023/10/01 10:53:17;;;;;;;;;;;;;;;20.64;75.12;102238.06;5098289;27;1905;-74
2023/10/01 10:55:54;;;;;;;;;;;;;;;20.73;75.55;102230.19;5087519;28;1161;-74
2023/10/01 10:58:20;;;;;;;;;;;;;;;20.83;75.17;102225.63;5088443;28;1202;-73
2023/10/01 11:00:46;;;;;;;;;;;;;;;20.90;74.85;102232.72;5085824;28;971;-73
2023/10/01 11:03:12;;;;;;;;;;;;;;;21.01;75.10;102222.88;5083996;28;1164;-74
2023/10/01 11:05:49;;;;;;;;;;;;;;;21.10;74.49;102217.44;5085793;28;1424;-73
2023/10/01 11:08:25;;;;;;;;;;;;;;;21.17;74.75;102223.75;5081575;28;1115;-73
2023/10/01 11:10:51;;;;;;;;;;;;;;;21.31;73.70;102208.31;5087240;28;1022;-73
2023/10/01 11:13:27;;;;;;;;;;;;;;;21.32;73.05;102209.97;5086175;28;1897;-73
2023/10/01 11:15:52;;;;;;;;;;;;;;;21.32;73.58;102221.34;5088357;28;1023;-73
2023/10/01 11:18:23;;;;;;;;;;;;;;;21.32;73.28;102212.59;5087348;28;1071;-73
2023/10/01 11:21:00;;;;;;;;;;;;;;;21.37;73.28;102207.66;5086421;28;1212;-74
2023/10/01 11:23:26;;;;;;;;;;;;;;;21.41;72.68;102203.72;5074533;28;1110;-73
2023/10/01 11:25:51;;;;;;;;;;;;;;;21.37;72.86;102202.38;5078107;28;1006;-74
2023/10/01 11:28:17;;;;;;;;;;;;;;;21.38;73.05;102204.03;5079034;28;2441;-75
2023/10/01 11:30:42;;;;;;;;;;;;;;;21.41;72.94;102203.72;5085302;28;1072;-74
2023/10/01 11:35:40;;;;;;;;;;;;;;;21.48;72.60;102205.53;5075867;28;1071;-75
2023/10/01 11:38:14;;;;;;;;;;;;;;;21.51;72.69;102203.56;5094570;27;1222;-75
2023/10/01 11:43:27;;;;;;;;;;;;;;;21.50;71.86;102199.25;5081821;28;2219;-73
2023/10/01 11:49:06;;;;;;;;;;;;;;;21.65;72.05;102190.53;5080945;28;1168;-73
2023/10/01 11:51:32;;;;;;;;;;;;;;;21.74;71.97;102200.13;5086393;28;1325;-74
2023/10/01 11:54:09;;;;;;;;;;;;;;;21.84;71.60;102199.09;5080798;28;1959;-73
2023/10/01 11:56:35;;;;;;;;;;;;;;;21.88;71.52;102189.88;5093186;28;1372;-73
2023/10/01 11:59:00;;;;;;;;;;;;;;;21.94;71.64;102186.56;5093563;28;1246;-74
2023/10/01 12:01:38;;;;;;;;;;;;;;;21.96;71.28;102181.91;5087078;28;1019;-73
2023/10/01 12:04:04;;;;;;;;;;;;;;;22.03;71.08;102182.09;5080956;28;1968;-73
2023/10/01 12:06:34;;;;;;;;;;;;;;;22.12;71.26;102181.94;5092432;28;1170;-74
2023/10/01 12:08:59;;;;;;;;;;;;;;;22.16;71.34;102180.63;5087373;28;1456;-74
2023/10/01 12:11:27;;;;;;;;;;;;;;;22.24;71.01;102172.66;5085951;28;1142;-74
2023/10/01 12:14:05;;;;;;;;;;;;;;;22.29;70.85;102173.97;5091819;28;1945;-74
2023/10/01 12:16:31;;;;;;;;;;;;;;;22.33;70.70;102167.34;5086461;28;943;-74
2023/10/01 12:21:41;;;;;;;;;;;;;;;22.49;70.33;102172.59;5087282;28;958;-74
2023/10/01 12:24:12;;;;;;;;;;;;;;;22.52;70.13;102166.94;5109162;27;1522;-74
2023/10/01 12:26:38;;;;;;;;;;;;;;;22.57;70.33;102169.91;5087581;28;1483;-74
2023/10/01 12:29:25;;;;;;;;;;;;;;;22.63;69.60;102174.50;5086761;28;1391;-74
2023/10/01 12:31:56;;;;;;;;;;;;;;;22.65;69.69;102167.25;5086648;28;1961;-73
2023/10/01 12:34:21;;;;;;;;;;;;;;;22.71;69.60;102160.41;5085667;28;1130;-73
2023/10/01 12:36:46;;;;;;;;;;;;;;;22.71;69.55;102155.97;5088064;28;1283;-74
2023/10/01 12:46:54;;;;;;;;;;;;;;;22.90;69.01;102164.50;5096494;28;1023;-75
2023/10/01 12:49:20;;;;;;;;;;;;;;;22.89;68.70;102147.00;5090588;28;1186;-75
2023/10/01 12:51:54;;;;;;;;;;;;;;;22.93;68.37;102148.28;5090014;28;1953;-74
2023/10/01 12:54:28;;;;;;;;;;;;;;;22.97;67.59;102139.00;5098585;28;1159;-74
2023/10/01 12:57:02;;;;;;;;;;;;;;;23.00;68.32;102139.47;5097319;28;1066;-74
2023/10/01 12:59:41;;;;;;;;;;;;;;;23.05;68.41;102141.56;5092565;28;966;-73
2023/10/01 13:02:22;;;;;;;;;;;;;;;23.10;67.93;102133.94;5093627;28;1072;-74
2023/10/01 13:05:16;;;;;;;;;;;;;;;23.04;66.99;102139.94;5092632;28;1231;-74
2023/10/01 13:07:37;;;;;;;;;;;;;;;22.94;67.31;102134.03;5089140;28;1603;-75
2023/10/01 13:10:06;;;;;;;;;;;;;;;22.93;67.37;102132.41;5091936;28;1113;-73
2023/10/01 13:12:31;;;;;;;;;;;;;;;22.87;67.52;102133.06;5085052;28;1882;-73
2023/10/01 13:15:29;;;;;;;;;;;;;;;22.83;67.51;102127.31;5087209;28;1174;-74
2023/10/01 13:17:56;;;;;;;;;;;;;;;22.78;67.53;102132.31;5079907;28;1930;-75
2023/10/01 13:20:28;;;;;;;;;;;;;;;22.77;67.37;102128.84;5087666;28;1310;-75
2023/10/01 13:23:06;;;;;;;;;;;;;;;22.82;67.27;102119.53;5084694;28;1248;-75
2023/10/01 13:25:33;;;;;;;;;;;;;;;22.86;67.19;102128.78;5083313;28;1237;-75
2023/10/01 13:28:01;;;;;;;;;;;;;;;22.85;67.08;102113.91;5077674;28;1112;-74
2023/10/01 13:33:22;;;;;;;;;;;;;;;22.84;66.45;102113.09;5087698;28;1894;-74
2023/10/01 13:35:56;;;;;;;;;;;;;;;22.83;66.67;102113.28;5085476;28;961;-74
2023/10/01 14:11:04;;;;;;;;;;;;;;;22.79;65.77;102095.09;5084037;28;1439;-74
2023/10/01 14:13:29;;;;;;;;;;;;;;;22.78;65.48;102088.16;5087846;28;1898;-76
2023/10/01 14:16:11;;;;;;;;;;;;;;;22.75;64.55;102095.59;5090706;28;1336;-76
2023/10/01 14:18:37;;;;;;;;;;;;;;;22.72;64.74;102093.31;5086214;28;955;-77
2023/10/01 14:21:12;;;;;;;;;;;;;;;22.68;65.27;102086.72;5087822;28;1154;-77
2023/10/01 14:23:42;;;;;;;;;;;;;;;22.66;65.27;102088.72;5086528;28;1032;-76
2023/10/01 14:26:12;;;;;;;;;;;;;;;22.62;65.41;102082.97;5077571;28;1226;-77
2023/10/01 14:28:38;;;;;;;;;;;;;;;22.58;65.56;102076.34;5084713;28;912;-76